Pirapetinga, Brazil
Current Conditions -  °F | °C
As of 11:00 PM on Tuesday 21 Oct 2014 (Local Time) from SBME Reporting Station
Light Rain Light Rain  
Wind Chill: 66°   Ceiling: 2000
Heat Index: 66°   Visibility: 5mi
Dew Point: 64°   Wind: 5mph
Humidity: 94%   Direction: 290°WNW
Pressure: 30.18"   Gusts: NA
Location:  21.66°S, 42.35°W
Report Text: SBME 220100Z 29004KT 8000 -RA BKN020 OVC070 19/18 Q1022
Loading
Personal Weather Stations






























Interactive Weather Map
Tropical Storm Tracking
New forecast layout! Learn more

10-Day Weather Forecast

Advertisements
Track Severe Weather on mobile